Time;durP1;ratioP1;P1;durP2;ratioP2;P2;SDS_P1;SDS_P2;PMS_P1;PMS_P2;Temp;Humidity;BMP_temperature;BMP_pressure;BME280_temperature;BME280_humidity;BME280_pressure;Samples;Min_cycle;Max_cycle;Signal;HPM_P1;HPM_P2
2024/01/31 00:02:24;;;;;;;5.03;3.07;;;;;6.00;97516.00;;;;5093353;28;20217;-59
2024/01/31 00:04:52;;;;;;;2.33;2.20;;;;;6.00;97512.00;;;;5093466;28;20531;-60
2024/01/31 00:07:21;;;;;;;2.00;1.90;;;;;6.00;97514.00;;;;5093479;28;20708;-59
2024/01/31 00:09:49;;;;;;;3.47;3.17;;;;;6.00;97519.00;;;;5093380;28;20726;-60
2024/01/31 00:12:17;;;;;;;2.77;2.50;;;;;6.00;97525.00;;;;5093509;28;20242;-60
2024/01/31 00:14:46;;;;;;;2.83;2.50;;;;;6.00;97522.00;;;;5093410;28;20193;-59
2024/01/31 00:17:13;;;;;;;4.57;4.17;;;;;6.10;97521.00;;;;5093275;28;20201;-60
2024/01/31 00:19:41;;;;;;;3.00;2.80;;;;;6.10;97522.00;;;;5093357;28;20260;-60
2024/01/31 00:22:09;;;;;;;2.83;2.63;;;;;6.10;97520.00;;;;5093341;28;20214;-60
2024/01/31 00:24:37;;;;;;;3.00;2.77;;;;;6.10;97524.00;;;;5093295;28;20191;-60
2024/01/31 00:27:05;;;;;;;3.30;3.00;;;;;5.90;97522.00;;;;5093070;28;20218;-60
2024/01/31 00:29:32;;;;;;;3.23;2.87;;;;;5.80;97520.00;;;;5074980;28;20732;-60
2024/01/31 00:32:00;;;;;;;4.17;3.77;;;;;5.80;97526.00;;;;5093121;28;20209;-60
2024/01/31 00:34:31;;;;;;;5.27;3.60;;;;;5.90;97520.00;;;;5093051;28;20191;-60
2024/01/31 00:36:58;;;;;;;2.33;2.23;;;;;5.90;97520.00;;;;5093170;28;20183;-59
2024/01/31 00:39:31;;;;;;;4.27;3.97;;;;;5.90;97521.00;;;;5092925;28;20187;-60
2024/01/31 00:41:58;;;;;;;3.10;2.90;;;;;6.00;97518.00;;;;5093384;28;20648;-60
2024/01/31 00:44:27;;;;;;;3.53;3.23;;;;;6.00;97517.00;;;;5093150;28;20248;-59
2024/01/31 00:46:54;;;;;;;4.03;3.00;;;;;6.00;97515.00;;;;5093464;28;20300;-60
2024/01/31 00:49:22;;;;;;;3.17;2.90;;;;;6.00;97520.00;;;;5096974;28;20203;-60
2024/01/31 00:51:49;;;;;;;3.50;2.80;;;;;5.90;97514.00;;;;5097516;28;20301;-61
2024/01/31 00:54:17;;;;;;;3.57;3.27;;;;;6.00;97513.00;;;;5096880;28;20203;-62
2024/01/31 00:56:45;;;;;;;2.33;2.23;;;;;6.00;97526.00;;;;5096907;28;20676;-61
2024/01/31 00:59:13;;;;;;;2.30;2.20;;;;;6.00;97519.00;;;;5097069;28;20201;-58
2024/01/31 01:01:40;;;;;;;4.87;3.90;;;;;6.00;97531.00;;;;5096765;28;20194;-60
2024/01/31 01:04:09;;;;;;;4.90;3.90;;;;;6.10;97519.00;;;;5096918;28;20545;-59
2024/01/31 01:06:36;;;;;;;3.20;2.87;;;;;6.10;97523.00;;;;5096615;28;20210;-58
2024/01/31 01:09:03;;;;;;;2.23;1.87;;;;;6.10;97517.00;;;;5096573;28;20194;-58
2024/01/31 01:11:33;;;;;;;2.73;2.50;;;;;6.10;97519.00;;;;5096676;28;20195;-58
2024/01/31 01:14:02;;;;;;;3.63;3.30;;;;;6.10;97520.00;;;;5096711;28;20202;-58
2024/01/31 01:16:30;;;;;;;3.50;3.20;;;;;6.00;97528.00;;;;5096581;28;20612;-58
2024/01/31 01:18:58;;;;;;;7.30;3.97;;;;;6.00;97530.00;;;;5096871;28;20187;-59
2024/01/31 01:21:25;;;;;;;3.97;2.93;;;;;6.00;97528.00;;;;5078327;28;20199;-60
2024/01/31 01:23:53;;;;;;;13.80;5.33;;;;;6.00;97530.00;;;;5096352;28;20222;-60
2024/01/31 01:26:20;;;;;;;8.63;4.60;;;;;6.00;97536.00;;;;5096330;28;20216;-59
2024/01/31 01:28:48;;;;;;;5.13;2.90;;;;;6.10;97531.00;;;;5096387;28;20240;-59
2024/01/31 01:31:18;;;;;;;4.70;3.33;;;;;6.00;97532.00;;;;5096257;28;20193;-58
2024/01/31 01:33:46;;;;;;;2.50;2.33;;;;;6.00;97541.00;;;;5096281;28;20254;-59
2024/01/31 01:36:13;;;;;;;3.03;2.67;;;;;5.90;97542.00;;;;5096124;28;20187;-59
2024/01/31 01:38:40;;;;;;;14.47;3.67;;;;;5.90;97538.00;;;;5078295;28;20676;-58
2024/01/31 01:41:08;;;;;;;3.77;3.33;;;;;5.90;97539.00;;;;5096411;28;20197;-58
2024/01/31 01:43:35;;;;;;;3.13;2.83;;;;;5.90;97528.00;;;;5096661;28;20690;-58
2024/01/31 01:46:09;;;;;;;2.53;2.33;;;;;5.90;97528.00;;;;5096021;28;20215;-58
2024/01/31 01:48:38;;;;;;;2.30;2.20;;;;;6.00;97528.00;;;;5096033;28;20207;-58
2024/01/31 01:51:06;;;;;;;3.70;2.70;;;;;6.00;97520.00;;;;5095901;28;20187;-59
2024/01/31 01:53:37;;;;;;;2.37;2.17;;;;;6.00;97518.00;;;;5095803;28;20210;-59
2024/01/31 01:56:05;;;;;;;7.80;3.63;;;;;6.00;97514.00;;;;5077787;28;20198;-59
2024/01/31 01:58:33;;;;;;;3.90;2.87;;;;;6.00;97517.00;;;;5095653;28;20654;-60
2024/01/31 02:01:01;;;;;;;2.27;2.10;;;;;6.00;97504.00;;;;5095718;28;20190;-59
2024/01/31 02:03:32;;;;;;;5.17;3.53;;;;;6.10;97503.00;;;;5095599;28;20220;-60
2024/01/31 02:06:01;;;;;;;1.83;1.73;;;;;6.10;97495.00;;;;5096446;28;20183;-60
2024/01/31 02:08:29;;;;;;;4.77;3.03;;;;;6.10;97495.00;;;;5096008;28;20199;-59
2024/01/31 02:10:57;;;;;;;2.73;2.53;;;;;6.10;97494.00;;;;5095617;28;20581;-59
2024/01/31 02:13:25;;;;;;;2.40;2.30;;;;;6.00;97485.00;;;;5095395;28;20230;-59
2024/01/31 02:15:53;;;;;;;2.33;2.13;;;;;5.90;97493.00;;;;5095647;28;20223;-59
2024/01/31 02:18:21;;;;;;;3.93;3.37;;;;;5.90;97488.00;;;;5095416;28;20535;-60
2024/01/31 02:20:49;;;;;;;1.90;1.80;;;;;5.90;97478.00;;;;5095609;28;20553;-58
2024/01/31 02:23:18;;;;;;;2.97;2.73;;;;;5.80;97487.00;;;;5095319;28;20206;-58
2024/01/31 02:25:46;;;;;;;3.13;2.00;;;;;5.80;97499.00;;;;5095355;28;20187;-58
2024/01/31 02:28:13;;;;;;;2.87;2.53;;;;;5.70;97492.00;;;;5095260;28;20210;-59
2024/01/31 02:30:41;;;;;;;1.33;1.27;;;;;5.70;97494.00;;;;5095253;28;20194;-60
2024/01/31 02:33:09;;;;;;;1.97;1.87;;;;;5.80;97494.00;;;;5095122;28;20241;-60
2024/01/31 02:35:36;;;;;;;2.37;2.17;;;;;5.80;97444.00;;;;5095126;28;20202;-59
2024/01/31 02:38:04;;;;;;;3.03;2.80;;;;;5.80;97491.00;;;;5095076;28;20186;-59
2024/01/31 02:40:33;;;;;;;5.07;2.77;;;;;5.90;97473.00;;;;5095458;28;20194;-59
2024/01/31 02:43:00;;;;;;;1.97;1.87;;;;;5.90;97474.00;;;;5094790;28;20225;-59
2024/01/31 02:45:28;;;;;;;3.47;2.63;;;;;6.00;97470.00;;;;5094921;28;20252;-59
2024/01/31 02:47:55;;;;;;;2.43;1.83;;;;;6.00;97471.00;;;;5094951;28;20214;-59
2024/01/31 02:50:25;;;;;;;1.57;1.50;;;;;6.00;97471.00;;;;5094786;28;20194;-60
2024/01/31 02:52:52;;;;;;;1.43;1.33;;;;;6.10;97468.00;;;;5094920;28;20222;-59
2024/01/31 02:55:20;;;;;;;2.87;2.63;;;;;6.00;97479.00;;;;5094745;28;20226;-59
2024/01/31 02:57:48;;;;;;;2.57;2.37;;;;;6.00;97473.00;;;;5094762;28;20559;-59
2024/01/31 03:00:17;;;;;;;1.80;1.70;;;;;6.00;97477.00;;;;5094914;28;20526;-59
2024/01/31 03:02:44;;;;;;;1.93;1.83;;;;;6.00;97465.00;;;;5094963;28;20232;-60
2024/01/31 03:05:12;;;;;;;2.13;1.97;;;;;6.00;97474.00;;;;5094821;28;20190;-60
2024/01/31 03:07:40;;;;;;;1.73;1.63;;;;;6.00;97481.00;;;;5094269;28;20210;-60
2024/01/31 03:10:09;;;;;;;1.70;1.60;;;;;6.00;97480.00;;;;5093923;28;20190;-59
2024/01/31 03:12:37;;;;;;;1.00;1.00;;;;;6.00;97483.00;;;;5094585;28;20562;-58
2024/01/31 03:15:06;;;;;;;2.83;2.20;;;;;6.00;97477.00;;;;5094413;28;20270;-58
2024/01/31 03:17:35;;;;;;;2.50;2.03;;;;;6.00;97474.00;;;;5094416;28;20185;-58
2024/01/31 03:20:05;;;;;;;1.73;1.63;;;;;6.00;97479.00;;;;5094421;28;20229;-59
2024/01/31 03:22:34;;;;;;;2.10;1.60;;;;;5.90;97475.00;;;;5094217;28;20211;-59
2024/01/31 03:25:01;;;;;;;2.07;1.87;;;;;5.90;97476.00;;;;5094084;28;20191;-58
2024/01/31 03:27:29;;;;;;;1.00;1.00;;;;;5.90;97471.00;;;;5094231;28;20689;-59
2024/01/31 03:30:01;;;;;;;1.63;1.53;;;;;5.80;97476.00;;;;5094078;28;20198;-59
2024/01/31 03:32:31;;;;;;;1.50;1.40;;;;;5.80;97471.00;;;;5075959;28;20228;-59
2024/01/31 03:34:59;;;;;;;1.40;1.30;;;;;5.80;97469.00;;;;5094375;28;20202;-59
2024/01/31 03:37:26;;;;;;;2.07;1.97;;;;;5.80;97468.00;;;;5093891;28;20658;-60
2024/01/31 03:39:54;;;;;;;2.23;2.03;;;;;5.70;97457.00;;;;5093823;28;20198;-60
2024/01/31 03:42:22;;;;;;;5.23;2.67;;;;;5.70;97463.00;;;;5075626;28;20226;-59
2024/01/31 03:44:49;;;;;;;1.80;1.70;;;;;5.80;97465.00;;;;5093944;28;20191;-59
2024/01/31 03:47:16;;;;;;;1.50;1.43;;;;;5.70;97467.00;;;;5094086;28;20226;-61
2024/01/31 03:49:45;;;;;;;2.87;1.33;;;;;5.80;97471.00;;;;5093595;28;20684;-58
2024/01/31 03:52:17;;;;;;;1.40;1.40;;;;;5.70;97471.00;;;;5093628;28;20337;-60
2024/01/31 03:54:45;;;;;;;2.03;1.47;;;;;5.70;97471.00;;;;5075585;28;20197;-60
2024/01/31 03:57:12;;;;;;;0.93;0.93;;;;;5.70;97462.00;;;;5093684;28;20190;-60
2024/01/31 03:59:40;;;;;;;1.43;1.33;;;;;5.70;97461.00;;;;5093802;28;20194;-59
2024/01/31 04:02:07;;;;;;;1.70;1.60;;;;;5.70;97474.00;;;;5093508;28;20217;-60
2024/01/31 04:04:34;;;;;;;1.80;1.70;;;;;5.70;97472.00;;;;5093485;28;20197;-60
2024/01/31 04:07:07;;;;;;;2.80;2.57;;;;;5.70;97473.00;;;;5093274;28;20222;-59
2024/01/31 04:09:34;;;;;;;3.63;1.40;;;;;5.70;97476.00;;;;5075165;28;20659;-60
2024/01/31 04:12:01;;;;;;;1.70;1.60;;;;;5.80;97476.00;;;;5093527;28;20218;-60
2024/01/31 04:14:29;;;;;;;2.33;2.17;;;;;5.80;97469.00;;;;5093218;28;20191;-59
2024/01/31 04:16:56;;;;;;;2.33;2.13;;;;;5.90;97474.00;;;;5093152;28;20201;-59
2024/01/31 04:19:24;;;;;;;2.10;1.97;;;;;5.90;97475.00;;;;5093406;28;20197;-59
2024/01/31 04:21:53;;;;;;;1.60;1.50;;;;;6.00;97485.00;;;;5093008;28;20705;-59
2024/01/31 04:24:22;;;;;;;2.37;2.17;;;;;6.00;97484.00;;;;5093225;28;20190;-59
2024/01/31 04:26:49;;;;;;;1.20;1.20;;;;;5.90;97491.00;;;;5093634;28;20261;-59
2024/01/31 04:29:17;;;;;;;1.57;1.47;;;;;5.90;97489.00;;;;5093144;28;20199;-59
2024/01/31 04:31:44;;;;;;;1.77;1.67;;;;;5.90;97484.00;;;;5093246;28;20205;-59
2024/01/31 04:34:12;;;;;;;2.77;2.57;;;;;5.90;97488.00;;;;5093092;28;20433;-61
2024/01/31 04:36:39;;;;;;;4.67;1.77;;;;;5.90;97492.00;;;;5093524;28;20195;-60
2024/01/31 04:39:07;;;;;;;1.20;1.10;;;;;5.70;97488.00;;;;5093405;28;20187;-59
2024/01/31 04:41:36;;;;;;;1.13;1.13;;;;;5.80;97491.00;;;;5092954;28;20195;-60
2024/01/31 04:44:03;;;;;;;2.03;1.73;;;;;5.80;97487.00;;;;5093010;28;20186;-59
2024/01/31 04:46:31;;;;;;;4.23;2.40;;;;;5.90;97489.00;;;;5092973;28;20645;-58
2024/01/31 04:48:58;;;;;;;3.30;1.83;;;;;5.90;97488.00;;;;5074854;28;20600;-59
2024/01/31 04:51:27;;;;;;;1.60;1.50;;;;;5.90;97497.00;;;;5092977;28;20190;-59
2024/01/31 04:53:54;;;;;;;3.00;2.70;;;;;5.90;97496.00;;;;5093112;28;20202;-59
2024/01/31 04:56:22;;;;;;;1.37;1.27;;;;;5.90;97510.00;;;;5092782;28;20531;-59
2024/01/31 04:58:52;;;;;;;1.27;1.27;;;;;5.80;97499.00;;;;5092922;28;20197;-59
2024/01/31 05:01:20;;;;;;;5.90;1.80;;;;;5.80;97496.00;;;;5092791;28;20179;-60
2024/01/31 05:03:47;;;;;;;1.73;1.63;;;;;5.80;97509.00;;;;5092815;28;20213;-59
2024/01/31 05:06:15;;;;;;;1.10;1.10;;;;;5.80;97510.00;;;;5092892;28;20673;-59
2024/01/31 05:08:42;;;;;;;3.00;2.80;;;;;5.80;97511.00;;;;5092848;28;20258;-59
2024/01/31 05:11:13;;;;;;;1.60;1.50;;;;;5.90;97512.00;;;;5092689;28;20187;-60
2024/01/31 05:13:40;;;;;;;2.33;2.13;;;;;5.80;97512.00;;;;5092747;28;20558;-59
2024/01/31 05:16:11;;;;;;;1.80;1.70;;;;;5.90;97513.00;;;;5092539;28;20198;-60
2024/01/31 05:18:40;;;;;;;1.90;1.73;;;;;5.90;97519.00;;;;5092683;28;20680;-60
2024/01/31 05:21:08;;;;;;;1.90;1.50;;;;;6.00;97514.00;;;;5093103;28;20187;-59
2024/01/31 05:23:39;;;;;;;2.60;2.00;;;;;6.00;97517.00;;;;5092680;28;20217;-61
2024/01/31 05:26:08;;;;;;;2.43;2.23;;;;;6.00;97516.00;;;;5092889;28;20187;-58
2024/01/31 05:28:36;;;;;;;2.43;2.23;;;;;6.00;97520.00;;;;5092560;28;20210;-58
2024/01/31 05:31:04;;;;;;;5.70;2.93;;;;;6.00;97523.00;;;;5092619;28;20194;-59
2024/01/31 05:33:36;;;;;;;1.93;1.83;;;;;6.10;97529.00;;;;5094135;28;20583;-60
2024/01/31 05:36:04;;;;;;;3.23;2.83;;;;;6.00;97531.00;;;;5096455;28;20187;-58
2024/01/31 05:38:31;;;;;;;1.73;1.63;;;;;6.00;97526.00;;;;5096243;28;20187;-61
2024/01/31 05:40:58;;;;;;;2.33;2.13;;;;;6.00;97531.00;;;;5096235;28;20195;-59
2024/01/31 05:43:26;;;;;;;19.23;2.97;;;;;5.80;97528.00;;;;5096208;28;20207;-58
2024/01/31 05:45:53;;;;;;;1.10;1.10;;;;;5.80;97528.00;;;;5096316;28;20198;-58
2024/01/31 05:48:21;;;;;;;2.33;2.13;;;;;5.90;97533.00;;;;5095841;28;20577;-58
2024/01/31 05:50:49;;;;;;;1.20;1.20;;;;;5.60;97536.00;;;;5096065;28;20190;-58
2024/01/31 05:53:17;;;;;;;2.33;2.20;;;;;5.60;97532.00;;;;5077672;28;20711;-59
2024/01/31 05:55:44;;;;;;;2.07;1.97;;;;;5.70;97529.00;;;;5096392;28;20205;-59
2024/01/31 05:58:12;;;;;;;1.03;1.03;;;;;5.50;97515.00;;;;5096175;28;20186;-60
2024/01/31 06:00:40;;;;;;;5.60;2.33;;;;;5.50;97523.00;;;;5077705;28;20255;-59
2024/01/31 06:03:08;;;;;;;1.40;1.30;;;;;5.60;97517.00;;;;5095741;28;20558;-58
2024/01/31 06:05:35;;;;;;;1.80;1.67;;;;;5.60;97523.00;;;;5096081;28;20225;-59
2024/01/31 06:08:04;;;;;;;2.13;2.03;;;;;5.70;97518.00;;;;5095529;28;20215;-60
2024/01/31 06:10:32;;;;;;;2.20;2.07;;;;;5.70;97520.00;;;;5095843;28;20195;-59
2024/01/31 06:12:59;;;;;;;2.50;1.93;;;;;5.70;97509.00;;;;5095685;28;20689;-59
2024/01/31 06:15:27;;;;;;;2.50;2.30;;;;;5.80;97517.00;;;;5095384;28;20256;-59
2024/01/31 06:17:55;;;;;;;2.73;2.53;;;;;5.80;97521.00;;;;5095659;28;20548;-59
2024/01/31 06:20:21;;;;;;;2.53;2.33;;;;;5.80;97524.00;;;;5095659;28;20206;-58
2024/01/31 06:22:49;;;;;;;1.53;1.47;;;;;5.90;97532.00;;;;5095323;28;20214;-59
2024/01/31 06:25:18;;;;;;;1.70;1.60;;;;;5.80;97528.00;;;;5095394;28;20187;-59
2024/01/31 06:27:46;;;;;;;1.17;1.17;;;;;5.80;97531.00;;;;5095059;28;20219;-59
2024/01/31 06:30:19;;;;;;;2.93;1.77;;;;;5.80;97534.00;;;;5095746;28;20191;-61
2024/01/31 06:32:47;;;;;;;1.67;1.57;;;;;5.70;97526.00;;;;5095318;28;20288;-59
2024/01/31 06:35:15;;;;;;;1.83;1.73;;;;;5.70;97527.00;;;;5095269;28;20199;-60
2024/01/31 06:37:42;;;;;;;2.73;1.53;;;;;5.80;97533.00;;;;5095280;28;20527;-58
2024/01/31 06:40:10;;;;;;;2.53;2.33;;;;;5.80;97533.00;;;;5095107;28;20205;-60
2024/01/31 06:42:40;;;;;;;1.97;1.87;;;;;5.80;97528.00;;;;5095399;28;20206;-61
2024/01/31 06:45:08;;;;;;;2.83;2.63;;;;;5.90;97530.00;;;;5093811;28;20190;-60
2024/01/31 06:47:35;;;;;;;3.10;2.80;;;;;5.90;97533.00;;;;5094826;28;20219;-60
2024/01/31 06:50:03;;;;;;;2.40;2.23;;;;;5.90;97529.00;;;;5094852;28;20194;-60
2024/01/31 06:52:31;;;;;;;2.57;2.37;;;;;5.90;97533.00;;;;5095056;28;20218;-61
2024/01/31 06:54:58;;;;;;;1.43;1.33;;;;;5.80;97534.00;;;;5076566;28;20195;-61
2024/01/31 06:57:25;;;;;;;5.37;2.03;;;;;5.90;97521.00;;;;5094958;28;20195;-59
2024/01/31 06:59:54;;;;;;;2.10;2.00;;;;;5.90;97532.00;;;;5094871;28;20201;-59
2024/01/31 07:02:22;;;;;;;2.03;1.60;;;;;5.90;97534.00;;;;5094498;28;20211;-59
2024/01/31 07:04:49;;;;;;;3.40;2.97;;;;;5.90;97535.00;;;;5094641;28;20195;-60
2024/01/31 07:07:16;;;;;;;2.33;1.97;;;;;6.00;97536.00;;;;5094389;28;20630;-59
2024/01/31 07:09:44;;;;;;;1.10;1.10;;;;;6.00;97540.00;;;;5094397;28;20670;-59
2024/01/31 07:12:12;;;;;;;1.57;1.50;;;;;6.00;97535.00;;;;5094559;28;20252;-60
2024/01/31 07:14:42;;;;;;;1.20;1.20;;;;;5.60;97547.00;;;;5094537;28;20190;-58
2024/01/31 07:17:11;;;;;;;1.77;1.67;;;;;5.70;97546.00;;;;5094330;28;20198;-59
2024/01/31 07:19:43;;;;;;;1.97;1.87;;;;;5.80;97546.00;;;;5094770;28;20657;-59
2024/01/31 07:22:11;;;;;;;2.67;1.90;;;;;5.90;97540.00;;;;5094217;28;20665;-58
2024/01/31 07:24:38;;;;;;;1.70;1.60;;;;;5.80;97540.00;;;;5094556;28;20193;-61
2024/01/31 07:27:06;;;;;;;1.47;1.37;;;;;5.80;97544.00;;;;5094226;28;20191;-60
2024/01/31 07:29:34;;;;;;;1.93;1.83;;;;;5.80;97550.00;;;;5094012;28;20219;-61
2024/01/31 07:32:01;;;;;;;2.47;2.33;;;;;5.90;97543.00;;;;5094154;28;20210;-61
2024/01/31 07:34:30;;;;;;;1.70;1.60;;;;;5.80;97546.00;;;;5089178;28;20199;-64
2024/01/31 07:36:57;;;;;;;5.63;2.53;;;;;5.90;97546.00;;;;5088934;28;20198;-63
2024/01/31 07:39:25;;;;;;;1.30;1.30;;;;;5.90;97540.00;;;;5092338;28;20202;-63
2024/01/31 07:41:54;;;;;;;2.57;2.37;;;;;5.90;97538.00;;;;5091483;28;20298;-62
2024/01/31 07:44:21;;;;;;;2.20;2.07;;;;;5.90;97533.00;;;;5092209;28;20645;-62
2024/01/31 07:46:49;;;;;;;2.27;2.07;;;;;5.80;97538.00;;;;5091360;28;20260;-62
2024/01/31 07:49:16;;;;;;;2.43;2.27;;;;;5.80;97526.00;;;;5091691;28;20214;-63
2024/01/31 07:51:45;;;;;;;9.03;2.33;;;;;5.80;97532.00;;;;5091648;28;20222;-61
2024/01/31 07:54:13;;;;;;;2.43;2.27;;;;;5.80;97520.00;;;;5071876;28;20296;-61
2024/01/31 07:56:40;;;;;;;3.20;2.37;;;;;5.90;97517.00;;;;5091402;28;20289;-58
2024/01/31 07:59:08;;;;;;;3.17;2.97;;;;;6.00;97532.00;;;;5092035;28;20194;-59
2024/01/31 08:01:35;;;;;;;3.17;2.07;;;;;6.10;97536.00;;;;5091159;28;20612;-58
2024/01/31 08:04:03;;;;;;;2.73;2.53;;;;;6.10;97530.00;;;;5092003;28;20199;-59
2024/01/31 08:06:31;;;;;;;1.70;1.60;;;;;6.30;97525.00;;;;5091480;28;20577;-58
2024/01/31 08:09:02;;;;;;;2.53;2.33;;;;;6.50;97529.00;;;;5089869;28;20226;-58
2024/01/31 08:11:29;;;;;;;5.30;3.67;;;;;6.70;97542.00;;;;5090404;28;20198;-61
2024/01/31 08:13:57;;;;;;;2.93;2.73;;;;;6.50;97545.00;;;;5092060;28;20202;-60
2024/01/31 08:16:24;;;;;;;3.63;3.33;;;;;6.50;97543.00;;;;5091037;28;20203;-59
2024/01/31 08:18:53;;;;;;;1.97;1.87;;;;;6.60;97538.00;;;;5091668;28;20195;-60
2024/01/31 08:21:20;;;;;;;4.87;3.03;;;;;6.50;97526.00;;;;5091146;28;20689;-59
2024/01/31 08:23:50;;;;;;;1.70;1.60;;;;;6.50;97532.00;;;;5091208;28;20258;-59
2024/01/31 08:26:19;;;;;;;4.73;2.70;;;;;6.50;97533.00;;;;5089516;28;20537;-60
2024/01/31 08:28:46;;;;;;;2.20;2.03;;;;;6.30;97537.00;;;;5091247;28;20662;-61
2024/01/31 08:31:14;;;;;;;1.97;1.87;;;;;6.30;97545.00;;;;5090721;28;20259;-59
2024/01/31 08:33:41;;;;;;;1.10;1.10;;;;;6.20;97544.00;;;;5091579;28;20210;-60
2024/01/31 08:36:10;;;;;;;3.30;1.97;;;;;6.20;97532.00;;;;5072609;28;20293;-59
2024/01/31 08:38:43;;;;;;;19.30;10.40;;;;;6.10;97532.00;;;;5091860;28;20222;-58
2024/01/31 08:41:11;;;;;;;2.47;2.37;;;;;6.20;97535.00;;;;5091094;28;20269;-58
2024/01/31 08:43:39;;;;;;;3.50;2.40;;;;;6.30;97530.00;;;;5091800;28;20218;-57
2024/01/31 08:46:07;;;;;;;2.30;2.13;;;;;6.20;97524.00;;;;5090745;28;20198;-58
2024/01/31 08:48:34;;;;;;;1.17;1.17;;;;;6.30;97522.00;;;;5091211;28;20218;-59
2024/01/31 08:51:04;;;;;;;2.13;2.00;;;;;6.20;97530.00;;;;5090443;28;20191;-60
2024/01/31 08:53:32;;;;;;;2.90;2.23;;;;;6.40;97535.00;;;;5091316;28;20216;-60
2024/01/31 08:56:01;;;;;;;3.37;2.03;;;;;6.30;97538.00;;;;5087300;28;20218;-58
2024/01/31 08:58:29;;;;;;;4.33;2.47;;;;;6.30;97538.00;;;;5091197;28;20191;-58
2024/01/31 09:00:59;;;;;;;1.77;1.67;;;;;6.30;97537.00;;;;5090790;28;20644;-58
2024/01/31 09:03:27;;;;;;;1.90;1.80;;;;;6.30;97537.00;;;;5091277;28;20568;-58
2024/01/31 09:05:54;;;;;;;1.23;1.23;;;;;6.30;97533.00;;;;5090827;28;20199;-59
2024/01/31 09:08:21;;;;;;;1.37;1.27;;;;;6.30;97529.00;;;;5092335;28;20559;-58
2024/01/31 09:10:49;;;;;;;1.87;1.77;;;;;6.30;97538.00;;;;5095020;28;20520;-58
2024/01/31 09:13:16;;;;;;;2.97;2.10;;;;;6.40;97537.00;;;;5093725;28;20218;-58
2024/01/31 09:15:43;;;;;;;2.47;2.27;;;;;6.30;97544.00;;;;5095003;28;20227;-58
2024/01/31 09:18:14;;;;;;;1.90;1.80;;;;;6.30;97533.00;;;;5094023;28;20626;-58
2024/01/31 09:20:41;;;;;;;1.63;1.53;;;;;6.40;97533.00;;;;5095089;28;20217;-58
2024/01/31 09:23:09;;;;;;;1.80;1.70;;;;;6.40;97532.00;;;;5094303;28;20217;-59
2024/01/31 09:25:36;;;;;;;1.77;1.67;;;;;6.40;97532.00;;;;5095103;28;20688;-58
2024/01/31 09:28:04;;;;;;;1.83;1.73;;;;;6.50;97531.00;;;;5094310;28;20277;-59
2024/01/31 09:30:32;;;;;;;8.03;2.73;;;;;6.60;97523.00;;;;5094884;28;20302;-58
2024/01/31 09:32:59;;;;;;;3.37;2.70;;;;;6.50;97518.00;;;;5094569;28;20286;-58
2024/01/31 09:35:28;;;;;;;2.73;2.20;;;;;6.60;97523.00;;;;5093924;28;20210;-58
2024/01/31 09:37:55;;;;;;;4.27;3.90;;;;;6.60;97529.00;;;;5093155;28;20205;-60
2024/01/31 09:40:23;;;;;;;4.47;4.00;;;;;6.60;97529.00;;;;5094298;28;20718;-60
2024/01/31 09:42:52;;;;;;;4.30;2.30;;;;;6.70;97528.00;;;;5093676;28;20215;-59
2024/01/31 09:45:20;;;;;;;2.67;2.47;;;;;6.70;97521.00;;;;5093856;28;20237;-59
2024/01/31 09:47:48;;;;;;;2.30;2.10;;;;;6.80;97524.00;;;;5094119;28;20195;-59
2024/01/31 09:50:18;;;;;;;2.30;2.07;;;;;6.80;97519.00;;;;5094345;28;20242;-59
2024/01/31 09:52:53;;;;;;;4.57;1.90;;;;;6.90;97519.00;;;;5094245;28;20210;-59
2024/01/31 09:55:23;;;;;;;1.30;1.30;;;;;6.80;97519.00;;;;5094548;28;20190;-61
2024/01/31 09:57:51;;;;;;;2.10;2.00;;;;;6.80;97528.00;;;;5089185;28;20190;-59
2024/01/31 10:00:22;;;;;;;2.90;2.20;;;;;7.00;97514.00;;;;5094414;28;20187;-58
2024/01/31 10:02:49;;;;;;;4.83;2.60;;;;;6.90;97525.00;;;;5093985;28;20724;-58
2024/01/31 10:05:17;;;;;;;1.43;1.40;;;;;7.10;97528.00;;;;5093986;28;20194;-58
2024/01/31 10:07:46;;;;;;;2.30;2.17;;;;;7.10;97517.00;;;;5093820;28;20197;-58
2024/01/31 10:10:14;;;;;;;2.97;2.67;;;;;7.30;97521.00;;;;5093637;28;20218;-59
2024/01/31 10:12:41;;;;;;;1.83;1.73;;;;;7.30;97517.00;;;;5093391;28;20297;-59
2024/01/31 10:15:10;;;;;;;2.23;2.03;;;;;7.20;97514.00;;;;5093568;28;20691;-59
2024/01/31 10:17:38;;;;;;;2.17;2.07;;;;;7.10;97502.00;;;;5093700;28;20294;-58
2024/01/31 10:20:10;;;;;;;1.93;1.77;;;;;7.20;97520.00;;;;5075027;28;20195;-58
2024/01/31 10:22:38;;;;;;;1.57;1.50;;;;;7.30;97510.00;;;;5075548;28;20222;-58
2024/01/31 10:25:08;;;;;;;1.80;1.70;;;;;7.30;97503.00;;;;5094092;28;20237;-58
2024/01/31 10:27:37;;;;;;;2.43;2.27;;;;;7.50;97496.00;;;;5094663;28;20547;-58
2024/01/31 10:30:07;;;;;;;4.73;3.37;;;;;7.60;97488.00;;;;5092936;28;20293;-58
2024/01/31 10:32:38;;;;;;;4.20;2.73;;;;;7.60;97488.00;;;;5093670;28;20222;-58
2024/01/31 10:35:06;;;;;;;2.40;2.30;;;;;7.70;97476.00;;;;5092847;28;20190;-60
2024/01/31 10:37:34;;;;;;;1.50;1.47;;;;;7.80;97480.00;;;;5093465;28;20195;-60
2024/01/31 10:40:04;;;;;;;2.10;2.00;;;;;7.90;97480.00;;;;5092718;28;20281;-57
2024/01/31 10:42:33;;;;;;;1.93;1.83;;;;;8.00;97483.00;;;;5093568;28;20214;-58
2024/01/31 10:45:01;;;;;;;1.43;1.40;;;;;8.20;97475.00;;;;5092835;28;20191;-58
2024/01/31 10:47:28;;;;;;;2.87;2.33;;;;;8.30;97468.00;;;;5075248;28;20205;-58
2024/01/31 10:49:56;;;;;;;2.07;1.97;;;;;8.50;97469.00;;;;5092364;28;20272;-59
2024/01/31 10:52:31;;;;;;;1.63;1.53;;;;;8.60;97468.00;;;;5092320;28;20227;-59
2024/01/31 10:55:01;;;;;;;1.80;1.67;;;;;8.70;97466.00;;;;5087989;28;20194;-58
2024/01/31 10:57:29;;;;;;;3.50;2.40;;;;;8.80;97461.00;;;;5092863;28;20186;-59
2024/01/31 10:59:59;;;;;;;1.77;1.67;;;;;8.90;97461.00;;;;5092529;28;20692;-59
2024/01/31 11:02:30;;;;;;;1.63;1.57;;;;;9.20;97459.00;;;;5092671;28;20226;-59
2024/01/31 11:05:00;;;;;;;2.97;2.53;;;;;9.50;97454.00;;;;5092389;28;20222;-61
2024/01/31 11:07:28;;;;;;;1.87;1.70;;;;;9.80;97451.00;;;;5091673;28;20206;-60
2024/01/31 11:09:55;;;;;;;3.60;2.73;;;;;10.10;97447.00;;;;5092595;28;20604;-60
2024/01/31 11:12:23;;;;;;;1.80;1.70;;;;;10.20;97444.00;;;;5091116;28;20297;-60
2024/01/31 11:14:52;;;;;;;4.20;2.67;;;;;10.20;97433.00;;;;5091471;28;20204;-61
2024/01/31 11:17:23;;;;;;;4.03;3.47;;;;;10.30;97439.00;;;;5092049;28;20187;-60
2024/01/31 11:19:53;;;;;;;4.50;3.07;;;;;10.30;97418.00;;;;5092404;28;20187;-60
2024/01/31 11:22:21;;;;;;;1.43;1.37;;;;;10.60;97416.00;;;;5092466;28;20233;-59
2024/01/31 11:24:49;;;;;;;1.90;1.23;;;;;10.80;97396.00;;;;5092018;28;20207;-60
2024/01/31 11:27:18;;;;;;;1.43;1.33;;;;;11.80;97397.00;;;;5092081;28;20201;-59
2024/01/31 11:29:50;;;;;;;1.40;1.30;;;;;12.60;97400.00;;;;5092007;28;20206;-58
2024/01/31 11:32:18;;;;;;;1.80;1.70;;;;;12.70;97390.00;;;;5091464;28;20769;-60
2024/01/31 11:34:57;;;;;;;1.10;1.10;;;;;11.30;97402.00;;;;5092029;28;20206;-59
2024/01/31 11:37:25;;;;;;;1.23;1.23;;;;;11.10;97408.00;;;;5092092;28;20654;-59
2024/01/31 11:39:53;;;;;;;1.63;1.53;;;;;11.00;97405.00;;;;5091914;28;20636;-58
2024/01/31 11:42:20;;;;;;;1.57;1.47;;;;;11.00;97400.00;;;;5091490;28;20293;-59
2024/01/31 11:44:48;;;;;;;1.80;1.47;;;;;10.80;97397.00;;;;5092369;28;20207;-61
2024/01/31 11:47:16;;;;;;;1.73;1.50;;;;;10.80;97401.00;;;;5091330;28;20681;-60
2024/01/31 11:49:43;;;;;;;1.47;1.40;;;;;10.50;97406.00;;;;5092040;28;20225;-63
2024/01/31 11:52:12;;;;;;;1.90;1.80;;;;;10.60;97395.00;;;;5091066;28;20214;-62
2024/01/31 11:54:40;;;;;;;1.10;1.10;;;;;10.40;97391.00;;;;5091758;28;20205;-61
2024/01/31 11:57:08;;;;;;;1.40;1.37;;;;;10.40;97398.00;;;;5091730;28;20268;-60
2024/01/31 11:59:35;;;;;;;12.03;1.20;;;;;10.40;97386.00;;;;5091888;28;20595;-62
2024/01/31 12:02:04;;;;;;;2.97;1.97;;;;;10.40;97391.00;;;;5091015;28;20288;-62
2024/01/31 12:04:31;;;;;;;1.07;1.07;;;;;10.30;97397.00;;;;5090269;28;20194;-58
2024/01/31 12:07:05;;;;;;;1.40;1.37;;;;;10.40;97387.00;;;;5091884;28;20203;-59
2024/01/31 12:09:35;;;;;;;1.53;1.37;;;;;10.30;97379.00;;;;5090849;28;20307;-58
2024/01/31 12:12:03;;;;;;;0.80;0.80;;;;;10.70;97380.00;;;;5091105;28;20214;-58
2024/01/31 12:14:30;;;;;;;2.50;2.30;;;;;10.70;97393.00;;;;5091800;28;20654;-58
2024/01/31 12:16:58;;;;;;;1.03;1.03;;;;;10.80;97382.00;;;;5090431;28;20686;-58
2024/01/31 12:19:29;;;;;;;0.93;0.93;;;;;11.30;97381.00;;;;5092264;28;20187;-58
2024/01/31 12:21:56;;;;;;;0.90;0.90;;;;;11.40;97376.00;;;;5091284;28;20297;-58
2024/01/31 12:24:27;;;;;;;2.00;1.60;;;;;11.30;97353.00;;;;5091446;28;20190;-58
2024/01/31 12:26:56;;;;;;;1.57;1.47;;;;;11.60;97376.00;;;;5090064;28;20218;-58
2024/01/31 12:29:23;;;;;;;1.03;1.03;;;;;11.90;97375.00;;;;5091607;28;20201;-58
2024/01/31 12:31:51;;;;;;;1.33;1.27;;;;;12.50;97387.00;;;;5073291;28;20671;-58